createdAt,value
2019-04-11T00:01:53.461Z,4.44
2019-04-11T00:04:01.889Z,4.49
2019-04-11T00:06:11.804Z,4.16
2019-04-11T00:08:19.836Z,4.17
2019-04-11T00:10:29.147Z,4.32
2019-04-11T00:12:38.904Z,4.32
2019-04-11T00:14:46.997Z,4.15
2019-04-11T00:16:55.411Z,4.29
2019-04-11T00:19:03.513Z,4.24
2019-04-11T00:21:11.353Z,4.31
2019-04-11T00:23:19.058Z,4.08
2019-04-11T00:25:27.790Z,4.22
2019-04-11T00:27:35.608Z,4.09
2019-04-11T00:29:43.483Z,4.07
2019-04-11T00:31:51.258Z,4.12
2019-04-11T00:33:59.134Z,4.18
2019-04-11T00:36:08.483Z,4.02
2019-04-11T00:38:16.245Z,4.10
2019-04-11T00:40:24.879Z,4.08
2019-04-11T00:42:32.845Z,3.85
2019-04-11T00:44:41.182Z,4.01
2019-04-11T00:46:48.973Z,4.14
2019-04-11T00:48:57.699Z,4.16
2019-04-11T00:51:07.691Z,4.10
2019-04-11T00:53:16.014Z,3.93
2019-04-11T00:55:24.748Z,4.07
2019-04-11T00:57:33.491Z,4.14
2019-04-11T00:59:42.405Z,4.00
2019-04-11T01:01:51.573Z,4.09
2019-04-11T01:03:59.332Z,4.13
2019-04-11T01:06:08.315Z,3.99
2019-04-11T01:08:16.134Z,4.09
2019-04-11T01:10:24.538Z,4.05
2019-04-11T01:12:34.398Z,4.16
2019-04-11T01:14:42.725Z,3.98
2019-04-11T01:16:52.682Z,4.00
2019-04-11T01:19:00.623Z,3.98
2019-04-11T01:21:10.250Z,3.98
2019-04-11T01:23:18.566Z,3.99
2019-04-11T01:25:26.332Z,3.95
2019-04-11T01:27:36.149Z,3.90
2019-04-11T01:29:44.089Z,4.03
2019-04-11T01:31:54.753Z,3.90
2019-04-11T01:34:04.442Z,4.00
2019-04-11T01:36:13.695Z,4.13
2019-04-11T01:38:23.689Z,4.14
2019-04-11T01:40:31.903Z,4.18
2019-04-11T01:42:39.859Z,4.13
2019-04-11T01:44:47.775Z,4.13
2019-04-11T01:46:56.284Z,4.18
2019-04-11T01:49:12.242Z,3.93
2019-04-11T01:51:21.189Z,3.84
2019-04-11T01:53:29.196Z,3.79
2019-04-11T01:55:36.968Z,3.74
2019-04-11T01:57:44.751Z,3.67
2019-04-11T01:59:53.396Z,3.64
2019-04-11T02:02:03.431Z,3.48
2019-04-11T02:04:18.074Z,3.40
2019-04-11T02:06:26.117Z,3.70
2019-04-11T02:08:33.904Z,3.60
2019-04-11T02:10:43.338Z,3.50
2019-04-11T02:12:51.170Z,3.46
2019-04-11T02:14:59.800Z,3.58
2019-04-11T02:17:08.538Z,3.40
2019-04-11T02:19:16.644Z,3.26
2019-04-11T02:21:25.349Z,3.42
2019-04-11T02:23:51.147Z,3.34
2019-04-11T02:26:13.390Z,3.24
2019-04-11T02:28:22.497Z,3.16
2019-04-11T02:30:31.333Z,3.20
2019-04-11T02:32:40.411Z,3.13
2019-04-11T02:34:50.654Z,3.20
2019-04-11T02:37:00.081Z,3.14
2019-04-11T02:39:14.923Z,3.18
2019-04-11T02:41:21.120Z,3.20
2019-04-11T02:43:29.552Z,3.19
2019-04-11T02:45:51.673Z,3.12
2019-04-11T02:47:50.991Z,3.09
2019-04-11T02:49:59.176Z,3.12
2019-04-11T02:52:07.449Z,2.96
2019-04-11T02:54:18.170Z,2.92
2019-04-11T02:56:28.705Z,3.06
2019-04-11T02:58:37.018Z,3.07
2019-04-11T03:00:46.299Z,3.06
2019-04-11T03:02:54.293Z,2.93
2019-04-11T03:05:03.429Z,2.86
2019-04-11T03:07:12.367Z,2.95
2019-04-11T03:09:22.155Z,3.00
2019-04-11T03:11:30.503Z,2.79
2019-04-11T03:13:38.935Z,2.71
2019-04-11T03:16:00.541Z,2.81
2019-04-11T03:18:01.947Z,2.82
2019-04-11T03:20:17.062Z,2.84
2019-04-11T03:22:18.231Z,2.68
2019-04-11T03:24:27.161Z,2.76
2019-04-11T03:26:37.777Z,2.78
2019-04-11T03:28:50.189Z,2.72
2019-04-11T03:31:26.813Z,2.79
2019-04-11T03:37:53.899Z,2.79
2019-04-11T03:39:56.863Z,2.83
2019-04-11T03:42:03.958Z,2.71
2019-04-11T03:44:04.319Z,2.78
2019-04-11T03:46:24.972Z,2.84
2019-04-11T03:48:29.017Z,2.72
2019-04-11T03:50:30.460Z,2.79
2019-04-11T03:52:36.706Z,2.54
2019-04-11T03:54:45.503Z,2.55
2019-04-11T03:56:54.014Z,2.70
2019-04-11T03:59:03.812Z,2.76
2019-04-11T04:01:11.846Z,2.61
2019-04-11T04:03:20.325Z,2.76
2019-04-11T04:05:32.403Z,2.63
2019-04-11T04:07:40.473Z,2.83
2019-04-11T04:09:49.063Z,2.72
2019-04-11T04:11:58.987Z,2.56
2019-04-11T04:14:08.408Z,2.86
2019-04-11T04:16:40.862Z,2.98
2019-04-11T04:18:45.820Z,3.05
2019-04-11T04:21:10.578Z,3.11
2019-04-11T04:23:20.844Z,2.98
2019-04-11T04:25:29.122Z,2.80
2019-04-11T04:27:38.634Z,2.92
2019-04-11T04:29:51.849Z,2.91
2019-04-11T04:31:59.368Z,2.90
2019-04-11T04:34:07.285Z,2.92
2019-04-11T04:36:17.773Z,2.85
2019-04-11T04:38:25.215Z,2.88
2019-04-11T04:40:50.018Z,2.83
2019-04-11T04:42:50.182Z,2.79
2019-04-11T04:44:55.805Z,2.91
2019-04-11T04:47:13.725Z,2.99
2019-04-11T04:49:15.175Z,2.67
2019-04-11T04:51:24.334Z,2.86
2019-04-11T04:53:33.747Z,3.01
2019-04-11T04:55:43.573Z,2.99
2019-04-11T04:57:53.283Z,2.87
2019-04-11T05:00:02.576Z,3.16
2019-04-11T05:02:12.644Z,3.24
2019-04-11T05:04:21.061Z,3.38
2019-04-11T05:06:29.017Z,3.10
2019-04-11T05:08:36.715Z,3.14
2019-04-11T05:10:44.957Z,3.43
2019-04-11T05:12:52.945Z,3.52
2019-04-11T05:15:01.541Z,3.43
2019-04-11T05:17:10.744Z,3.66
2019-04-11T05:19:19.084Z,3.76
2019-04-11T05:21:27.629Z,3.84
2019-04-11T05:23:35.479Z,3.86
2019-04-11T05:25:44.557Z,3.53
2019-04-11T05:27:52.483Z,3.54
2019-04-11T05:30:02.834Z,3.70
2019-04-11T05:32:11.346Z,3.81
2019-04-11T05:34:20.259Z,3.72
2019-04-11T05:36:28.372Z,3.72
2019-04-11T05:38:36.208Z,3.48
2019-04-11T05:40:44.069Z,3.70
2019-04-11T05:42:54.204Z,3.77
2019-04-11T05:45:01.221Z,3.82
2019-04-11T05:47:09.098Z,3.80
2019-04-11T05:49:31.209Z,3.84
2019-04-11T05:51:41.657Z,3.84
2019-04-11T05:53:48.934Z,3.59
2019-04-11T05:55:59.427Z,3.72
2019-04-11T05:58:11.418Z,3.48
2019-04-11T06:00:25.015Z,3.72
2019-04-11T06:02:35.305Z,3.74
2019-04-11T06:04:51.956Z,3.65
2019-04-11T06:07:03.170Z,3.71
2019-04-11T06:09:16.778Z,3.74
2019-04-11T06:11:28.445Z,3.68
2019-04-11T06:13:38.015Z,3.81
2019-04-11T06:15:47.425Z,3.79
2019-04-11T06:17:55.101Z,3.89
2019-04-11T06:20:25.115Z,3.99
2019-04-11T06:22:32.499Z,3.90
2019-04-11T06:24:56.447Z,3.74
2019-04-11T06:27:18.069Z,3.69
2019-04-11T06:29:36.957Z,3.94
2019-04-11T06:31:49.408Z,3.83
2019-04-11T06:33:59.004Z,3.87
2019-04-11T06:36:06.623Z,3.80
2019-04-11T06:38:32.439Z,3.92
2019-04-11T06:40:54.413Z,3.82
2019-04-11T06:43:18.307Z,3.94
2019-04-11T06:45:44.239Z,4.18
2019-04-11T06:47:56.995Z,4.10
2019-04-11T06:50:22.999Z,4.10
2019-04-11T06:52:32.823Z,4.24
2019-04-11T06:54:52.404Z,4.22
2019-04-11T06:57:02.013Z,4.17
2019-04-11T06:59:12.221Z,3.88
2019-04-11T07:01:22.418Z,4.17
2019-04-11T07:03:32.491Z,4.26
2019-04-11T07:05:42.634Z,4.20
2019-04-11T07:07:52.132Z,4.46
2019-04-11T07:10:02.106Z,4.55
2019-04-11T07:12:28.647Z,4.81
2019-04-11T07:14:55.117Z,4.48
2019-04-11T07:17:21.133Z,4.39
2019-04-11T07:19:30.766Z,4.64
2019-04-11T07:21:39.689Z,4.60
2019-04-11T07:24:05.447Z,4.67
2019-04-11T07:26:20.943Z,4.65
2019-04-11T07:28:33.731Z,4.89
2019-04-11T07:31:00.447Z,4.70
2019-04-11T07:33:28.812Z,4.93
2019-04-11T07:35:55.419Z,4.99
2019-04-11T07:38:03.234Z,5.17
2019-04-11T07:40:11.574Z,5.29
2019-04-11T07:42:26.799Z,5.30
2019-04-11T07:44:35.409Z,5.29
2019-04-11T07:47:12.860Z,5.12
2019-04-11T07:49:10.491Z,4.75
2019-04-11T07:51:19.878Z,5.23
2019-04-11T07:53:28.557Z,5.46
2019-04-11T07:55:38.701Z,5.00
2019-04-11T07:57:48.974Z,5.13
2019-04-11T08:00:08.271Z,5.47
2019-04-11T08:02:24.090Z,5.07
2019-04-11T08:04:49.544Z,5.19
2019-04-11T08:07:05.434Z,5.17
2019-04-11T08:09:26.708Z,5.23
2019-04-11T08:11:36.444Z,5.37
2019-04-11T08:14:02.294Z,5.27
2019-04-11T08:16:28.990Z,5.25
2019-04-11T08:18:45.438Z,5.45
2019-04-11T08:21:04.215Z,5.56
2019-04-11T08:23:12.086Z,5.49
2019-04-11T08:25:21.634Z,5.74
2019-04-11T08:27:50.015Z,5.20
2019-04-11T08:29:51.540Z,5.19
2019-04-11T08:32:09.506Z,5.24
2019-04-11T08:34:21.886Z,5.60
2019-04-11T08:36:29.634Z,5.65
2019-04-11T08:38:37.377Z,5.66
2019-04-11T08:41:03.102Z,5.43
2019-04-11T08:43:12.981Z,5.71
2019-04-11T08:45:23.742Z,5.63
2019-04-11T08:47:44.744Z,5.64
2019-04-11T08:49:45.913Z,5.81
2019-04-11T08:51:56.092Z,5.83
2019-04-11T08:54:21.835Z,5.90
2019-04-11T08:56:29.636Z,5.69
2019-04-11T08:58:53.851Z,5.79
2019-04-11T09:01:03.475Z,5.84
2019-04-11T09:03:20.165Z,5.69
2019-04-11T09:05:45.688Z,5.92
2019-04-11T09:07:56.141Z,5.90
2019-04-11T09:10:24.151Z,5.45
2019-04-11T09:12:32.135Z,5.41
2019-04-11T09:14:52.682Z,5.37
2019-04-11T09:17:05.910Z,5.39
2019-04-11T09:19:25.070Z,5.24
2019-04-11T09:21:51.026Z,5.23
2019-04-11T09:23:59.667Z,5.39
2019-04-11T09:26:09.831Z,5.63
2019-04-11T09:28:19.722Z,5.80
2019-04-11T09:30:45.621Z,5.83
2019-04-11T09:33:10.952Z,6.06
2019-04-11T09:35:33.442Z,6.03
2019-04-11T09:37:44.228Z,5.93
2019-04-11T09:39:55.171Z,5.49
2019-04-11T09:42:22.716Z,5.64
2019-04-11T09:44:46.726Z,5.78
2019-04-11T09:47:09.513Z,5.94
2019-04-11T09:49:18.388Z,5.78
2019-04-11T09:51:29.467Z,5.90
2019-04-11T09:53:41.064Z,5.88
2019-04-11T09:56:02.659Z,5.86
2019-04-11T09:58:25.294Z,5.65
2019-04-11T10:00:51.163Z,5.52
2019-04-11T10:03:03.336Z,5.42
2019-04-11T10:05:13.767Z,5.58
2019-04-11T10:07:23.760Z,5.67
2019-04-11T10:09:48.491Z,5.71
2019-04-11T10:12:15.813Z,5.42
2019-04-11T10:14:24.031Z,5.74
2019-04-11T10:16:34.148Z,5.92
2019-04-11T10:18:47.798Z,5.55
2019-04-11T10:20:57.076Z,5.50
2019-04-11T10:23:10.644Z,5.65
2019-04-11T10:25:21.243Z,5.77
2019-04-11T10:27:28.955Z,5.95
2019-04-11T10:29:36.581Z,5.86
2019-04-11T10:31:48.860Z,5.93
2019-04-11T10:33:59.418Z,6.20
2019-04-11T10:36:21.444Z,6.32
2019-04-11T10:38:29.253Z,5.96
2019-04-11T10:40:48.232Z,6.19
2019-04-11T10:42:56.069Z,6.41
2019-04-11T10:45:25.315Z,6.46
2019-04-11T10:47:34.629Z,6.31
2019-04-11T10:49:42.208Z,6.41
2019-04-11T10:51:56.064Z,6.48
2019-04-11T10:54:05.841Z,6.54
2019-04-11T10:56:19.148Z,6.65
2019-04-11T10:58:28.877Z,6.64
2019-04-11T11:00:39.641Z,6.45
2019-04-11T11:02:53.650Z,6.46
2019-04-11T11:05:01.582Z,6.45
2019-04-11T11:07:11.466Z,6.38
2019-04-11T11:09:30.287Z,6.53
2019-04-11T11:11:42.310Z,6.56
2019-04-11T11:13:52.111Z,6.20
2019-04-11T11:16:00.300Z,6.30
2019-04-11T11:19:13.951Z,6.68
2019-04-11T11:20:41.477Z,6.72
2019-04-11T11:22:49.102Z,6.89
2019-04-11T11:25:11.597Z,6.91
2019-04-11T11:27:18.546Z,6.79
2019-04-11T11:29:29.071Z,6.91
2019-04-11T11:31:36.561Z,7.01
2019-04-11T11:33:45.309Z,7.05
2019-04-11T11:36:10.739Z,6.92
2019-04-11T11:38:19.901Z,6.98
2019-04-11T11:40:44.700Z,6.83
2019-04-11T11:43:09.147Z,6.54
2019-04-11T11:45:25.621Z,6.42
2019-04-11T11:47:46.978Z,6.74
2019-04-11T11:50:00.518Z,6.87
2019-04-11T11:52:07.535Z,6.99
2019-04-11T11:54:19.919Z,6.99
2019-04-11T11:56:27.841Z,7.02
2019-04-11T11:58:47.884Z,6.86
2019-04-11T12:00:57.236Z,6.82
2019-04-11T12:03:12.889Z,6.94
2019-04-11T12:05:22.433Z,7.14
2019-04-11T12:07:39.340Z,7.09
2019-04-11T12:10:04.983Z,7.15
2019-04-11T12:12:31.534Z,7.13
2019-04-11T12:14:57.582Z,6.75
2019-04-11T12:17:16.446Z,6.71
2019-04-11T12:19:26.870Z,6.81
2019-04-11T12:21:36.747Z,6.94
2019-04-11T12:24:03.784Z,6.71
2019-04-11T12:26:07.540Z,6.83
2019-04-11T12:28:27.681Z,7.03
2019-04-11T12:30:37.504Z,6.80
2019-04-11T12:32:49.740Z,6.81
2019-04-11T12:35:17.830Z,7.07
2019-04-11T12:37:29.854Z,7.17
2019-04-11T12:39:45.261Z,7.17
2019-04-11T12:41:54.776Z,7.18
2019-04-11T12:44:05.303Z,7.38
2019-04-11T12:46:30.836Z,7.38
2019-04-11T12:48:39.998Z,7.31
2019-04-11T12:50:57.450Z,7.35
2019-04-11T12:53:07.991Z,7.41
2019-04-11T12:55:17.394Z,7.41
2019-04-11T12:57:42.994Z,7.41
2019-04-11T12:59:52.494Z,7.15
2019-04-11T13:02:10.962Z,7.14
2019-04-11T13:04:23.632Z,7.27
2019-04-11T13:06:49.072Z,7.30
2019-04-11T13:09:14.541Z,7.44
2019-04-11T13:11:23.940Z,7.46
2019-04-11T13:13:42.138Z,7.41
2019-04-11T13:15:54.554Z,7.53
2019-04-11T13:18:19.890Z,7.60
2019-04-11T13:20:47.000Z,7.62
2019-04-11T13:23:03.770Z,7.41
2019-04-11T13:25:25.176Z,7.66
2019-04-11T13:27:34.645Z,7.69
2019-04-11T13:29:42.331Z,7.44
2019-04-11T13:31:52.645Z,7.58
2019-04-11T13:34:03.795Z,7.64
2019-04-11T13:36:29.762Z,7.57
2019-04-11T13:38:38.310Z,7.72
2019-04-11T13:40:46.326Z,7.90
2019-04-11T13:43:12.075Z,7.91
2019-04-11T13:45:19.958Z,8.03
2019-04-11T13:47:39.530Z,8.16
2019-04-11T13:49:49.195Z,8.05
2019-04-11T13:52:01.359Z,8.07
2019-04-11T13:54:26.903Z,8.24
2019-04-11T13:56:36.361Z,8.23
2019-04-11T13:59:02.019Z,8.12
2019-04-11T14:01:10.349Z,8.28
2019-04-11T14:03:20.844Z,8.13
2019-04-11T14:05:30.261Z,8.03
2019-04-11T14:07:38.415Z,8.11
2019-04-11T14:09:50.547Z,8.31
2019-04-11T14:11:58.397Z,8.37
2019-04-11T14:14:12.064Z,8.21
2019-04-11T14:16:21.589Z,8.22
2019-04-11T14:18:30.996Z,8.20
2019-04-11T14:20:44.561Z,8.34
2019-04-11T14:23:01.371Z,8.36
2019-04-11T14:25:14.964Z,8.32
2019-04-11T14:27:29.023Z,8.24
2019-04-11T14:29:41.193Z,8.29
2019-04-11T14:31:54.598Z,8.41
2019-04-11T14:34:20.367Z,8.30
2019-04-11T14:36:47.038Z,8.37
2019-04-11T14:38:56.453Z,8.41
2019-04-11T14:41:12.436Z,8.13
2019-04-11T14:43:22.682Z,8.27
2019-04-11T14:45:42.568Z,8.22
2019-04-11T14:48:10.208Z,8.42
2019-04-11T14:50:18.203Z,8.54
2019-04-11T14:52:31.656Z,8.65
2019-04-11T14:54:40.994Z,8.68
2019-04-11T14:57:00.560Z,8.67
2019-04-11T14:59:13.338Z,8.66
2019-04-11T15:01:23.726Z,8.62
2019-04-11T15:03:43.138Z,8.63
2019-04-11T15:06:02.613Z,8.69
2019-04-11T15:08:12.334Z,8.68
2019-04-11T15:10:40.140Z,8.66
2019-04-11T15:12:48.814Z,8.56
2019-04-11T15:14:56.339Z,8.65
2019-04-11T15:17:03.965Z,8.43
2019-04-11T15:19:12.329Z,8.47
2019-04-11T15:21:25.780Z,8.45
2019-04-11T15:23:37.522Z,8.65
2019-04-11T15:25:44.425Z,8.71
2019-04-11T15:27:54.636Z,8.69
2019-04-11T15:30:04.138Z,8.73
2019-04-11T15:32:16.386Z,8.75
2019-04-11T15:34:28.699Z,8.80
2019-04-11T15:36:39.849Z,8.73
2019-04-11T15:39:05.602Z,8.83
2019-04-11T15:41:13.898Z,8.79
2019-04-11T15:43:42.266Z,8.89
2019-04-11T15:45:49.633Z,8.83
2019-04-11T15:48:20.140Z,8.91
2019-04-11T15:50:39.768Z,8.96
2019-04-11T15:52:49.185Z,8.90
2019-04-11T15:55:02.439Z,8.86
2019-04-11T15:57:26.734Z,8.97
2019-04-11T15:59:36.678Z,9.00
2019-04-11T16:02:04.303Z,8.98
2019-04-11T16:04:29.910Z,8.97
2019-04-11T16:06:55.323Z,8.92
2019-04-11T16:09:03.993Z,8.90
2019-04-11T16:11:12.386Z,8.89
2019-04-11T16:13:22.504Z,8.88
2019-04-11T16:15:34.848Z,8.87
2019-04-11T16:17:45.206Z,8.90
2019-04-11T16:19:55.705Z,8.91
2019-04-11T16:22:24.722Z,8.90
2019-04-11T16:24:33.252Z,8.83
2019-04-11T16:26:48.593Z,8.79
2019-04-11T16:28:59.202Z,8.78
2019-04-11T16:31:09.461Z,8.78
2019-04-11T16:33:25.053Z,8.81
2019-04-11T16:35:40.394Z,8.80
2019-04-11T16:37:52.512Z,8.78
2019-04-11T16:40:18.109Z,8.76
2019-04-11T16:42:27.802Z,8.74
2019-04-11T16:44:47.420Z,8.72
2019-04-11T16:47:12.811Z,8.70
2019-04-11T16:49:20.730Z,8.67
2019-04-11T16:51:31.075Z,8.60
2019-04-11T16:53:38.169Z,8.62
2019-04-11T16:55:45.990Z,8.59
2019-04-11T16:57:54.021Z,8.61
2019-04-11T17:00:01.815Z,8.64
2019-04-11T17:02:10.787Z,8.67
2019-04-11T17:04:18.569Z,8.67
2019-04-11T17:06:41.177Z,8.70
2019-04-11T17:08:51.689Z,8.71
2019-04-11T17:11:04.179Z,8.72
2019-04-11T17:13:11.965Z,8.71
2019-04-11T17:15:20.889Z,8.73
2019-04-11T17:17:30.612Z,8.74
2019-04-11T17:19:39.310Z,8.78
2019-04-11T17:21:48.424Z,8.81
2019-04-11T17:23:56.646Z,8.80
2019-04-11T17:26:06.271Z,8.83
2019-04-11T17:28:14.282Z,8.86
2019-04-11T17:30:24.531Z,8.85
2019-04-11T17:32:31.644Z,8.86
2019-04-11T17:34:39.936Z,8.88
2019-04-11T17:36:47.789Z,8.89
2019-04-11T17:38:55.584Z,8.89
2019-04-11T17:41:03.310Z,8.90
2019-04-11T17:43:13.448Z,8.82
2019-04-11T17:45:20.633Z,8.75
2019-04-11T17:47:28.551Z,8.67
2019-04-11T17:49:36.385Z,8.69
2019-04-11T17:51:55.357Z,8.67
2019-04-11T17:53:55.890Z,8.61
2019-04-11T17:56:03.682Z,8.57
2019-04-11T17:58:11.477Z,8.60
2019-04-11T18:00:29.937Z,8.63
2019-04-11T18:02:39.008Z,8.64
2019-04-11T18:04:48.179Z,8.56
2019-04-11T18:06:56.096Z,8.59
2019-04-11T18:09:06.100Z,8.46
2019-04-11T18:11:14.224Z,8.46
2019-04-11T18:13:22.032Z,8.28
2019-04-11T18:15:31.267Z,8.34
2019-04-11T18:17:40.763Z,8.32
2019-04-11T18:19:48.575Z,8.31
2019-04-11T18:22:07.454Z,8.30
2019-04-11T18:24:06.467Z,8.18
2019-04-11T18:26:14.650Z,8.23
2019-04-11T18:28:22.539Z,8.28
2019-04-11T18:30:30.315Z,8.26
2019-04-11T18:32:39.555Z,7.97
2019-04-11T18:34:47.255Z,8.09
2019-04-11T18:36:55.026Z,8.14
2019-04-11T18:39:05.963Z,8.10
2019-04-11T18:41:14.011Z,8.11
2019-04-11T18:43:25.441Z,8.13
2019-04-11T18:45:34.089Z,8.13
2019-04-11T18:47:41.776Z,8.18
2019-04-11T18:49:50.949Z,8.02
2019-04-11T18:51:59.147Z,8.16
2019-04-11T18:54:07.837Z,8.13
2019-04-11T18:56:15.851Z,8.11
2019-04-11T18:58:23.590Z,8.13
2019-04-11T19:00:31.542Z,8.14
2019-04-11T19:02:40.204Z,8.02
2019-04-11T19:04:48.478Z,7.24
2019-04-11T19:06:56.260Z,7.50
2019-04-11T19:09:06.192Z,7.49
2019-04-11T19:11:15.733Z,7.60
2019-04-11T19:13:24.135Z,7.49
2019-04-11T19:15:31.998Z,7.54
2019-04-11T19:17:39.896Z,7.24
2019-04-11T19:19:48.931Z,6.97
2019-04-11T19:21:57.146Z,7.12
2019-04-11T19:24:09.057Z,7.04
2019-04-11T19:26:15.313Z,7.10
2019-04-11T19:28:25.207Z,7.01
2019-04-11T19:30:32.708Z,6.90
2019-04-11T19:32:40.669Z,6.90
2019-04-11T19:34:48.346Z,6.68
2019-04-11T19:36:56.222Z,6.79
2019-04-11T19:39:05.951Z,6.84
2019-04-11T19:41:17.150Z,6.60
2019-04-11T19:43:24.302Z,6.66
2019-04-11T19:45:32.076Z,6.30
2019-04-11T19:47:39.778Z,6.38
2019-04-11T19:49:47.537Z,6.30
2019-04-11T19:51:55.465Z,6.41
2019-04-11T19:54:03.911Z,6.39
2019-04-11T19:56:16.348Z,6.46
2019-04-11T19:58:25.756Z,6.03
2019-04-11T20:00:33.982Z,6.03
2019-04-11T20:02:41.885Z,6.18
2019-04-11T20:04:49.769Z,6.11
2019-04-11T20:06:57.586Z,6.14
2019-04-11T20:09:08.671Z,6.24
2019-04-11T20:11:18.124Z,6.21
2019-04-11T20:13:25.990Z,5.84
2019-04-11T20:15:37.183Z,5.81
2019-04-11T20:17:44.936Z,5.92
2019-04-11T20:20:01.150Z,6.03
2019-04-11T20:22:02.236Z,6.08
2019-04-11T20:24:14.112Z,5.88
2019-04-11T20:26:20.949Z,5.97
2019-04-11T20:28:29.050Z,6.00
2019-04-11T20:30:36.933Z,5.76
2019-04-11T20:32:44.715Z,5.90
2019-04-11T20:34:53.885Z,6.03
2019-04-11T20:37:02.293Z,5.81
2019-04-11T20:39:15.031Z,5.91
2019-04-11T20:41:23.287Z,5.92
2019-04-11T20:43:32.445Z,5.97
2019-04-11T20:45:42.060Z,6.03
2019-04-11T20:47:51.035Z,5.80
2019-04-11T20:49:58.716Z,5.77
2019-04-11T20:52:06.379Z,5.82
2019-04-11T20:54:14.153Z,5.67
2019-04-11T20:56:24.302Z,5.75
2019-04-11T20:58:32.493Z,5.66
2019-04-11T21:00:50.319Z,5.60
2019-04-11T21:02:50.337Z,5.66
2019-04-11T21:04:58.915Z,5.40
2019-04-11T21:07:07.629Z,5.51
2019-04-11T21:09:15.478Z,5.54
2019-04-11T21:11:24.076Z,5.44
2019-04-11T21:13:32.746Z,5.72
2019-04-11T21:15:40.524Z,5.40
2019-04-11T21:17:48.376Z,5.40
2019-04-11T21:19:56.078Z,5.45
2019-04-11T21:22:03.849Z,5.15
2019-04-11T21:24:11.722Z,5.31
2019-04-11T21:26:19.602Z,5.34
2019-04-11T21:28:29.809Z,5.32
2019-04-11T21:30:36.868Z,5.21
2019-04-11T21:32:44.741Z,5.27
2019-04-11T21:34:52.611Z,5.54
2019-04-11T21:37:02.535Z,5.14
2019-04-11T21:39:09.885Z,5.19
2019-04-11T21:41:17.758Z,5.33
2019-04-11T21:43:25.576Z,5.09
2019-04-11T21:45:35.855Z,5.14
2019-04-11T21:47:44.873Z,5.26
2019-04-11T21:49:52.718Z,5.33
2019-04-11T21:52:03.065Z,5.38
2019-04-11T21:54:14.650Z,5.47
2019-04-11T21:56:20.484Z,5.59
2019-04-11T21:58:28.180Z,5.40
2019-04-11T22:00:41.062Z,5.14
2019-04-11T22:02:51.914Z,5.27
2019-04-11T22:05:00.103Z,5.06
2019-04-11T22:07:07.964Z,5.11
2019-04-11T22:09:16.236Z,5.22
2019-04-11T22:11:24.045Z,5.09
2019-04-11T22:13:31.898Z,5.04
2019-04-11T22:15:42.123Z,5.19
2019-04-11T22:17:49.173Z,5.11
2019-04-11T22:19:56.981Z,5.37
2019-04-11T22:22:04.797Z,5.47
2019-04-11T22:24:12.502Z,5.01
2019-04-11T22:26:20.185Z,4.90
2019-04-11T22:28:27.859Z,5.22
2019-04-11T22:30:35.588Z,5.14
2019-04-11T22:32:45.008Z,5.31
2019-04-11T22:34:52.850Z,5.24
2019-04-11T22:37:00.690Z,5.24
2019-04-11T22:39:10.685Z,4.93
2019-04-11T22:41:19.626Z,5.08
2019-04-11T22:43:27.336Z,4.73
2019-04-11T22:45:37.820Z,4.61
2019-04-11T22:47:45.876Z,4.55
2019-04-11T22:49:53.891Z,4.76
2019-04-11T22:52:01.755Z,4.69
2019-04-11T22:54:12.922Z,4.55
2019-04-11T22:56:19.035Z,4.59
2019-04-11T22:58:26.818Z,4.70
2019-04-11T23:00:34.665Z,4.37
2019-04-11T23:02:48.299Z,4.59
2019-04-11T23:05:14.947Z,4.56
2019-04-11T23:07:40.351Z,4.59
2019-04-11T23:10:07.631Z,4.35
2019-04-11T23:12:32.532Z,4.58
2019-04-11T23:14:57.525Z,4.78
2019-04-11T23:17:23.818Z,4.60
2019-04-11T23:19:31.608Z,4.54
2019-04-11T23:21:39.532Z,4.75
2019-04-11T23:23:47.236Z,4.59
2019-04-11T23:25:56.091Z,4.64
2019-04-11T23:28:03.895Z,4.63
2019-04-11T23:30:15.917Z,4.71
2019-04-11T23:32:23.276Z,4.46
2019-04-11T23:34:31.032Z,4.52
2019-04-11T23:36:38.830Z,4.72
2019-04-11T23:38:46.498Z,4.37
2019-04-11T23:40:54.242Z,4.68
2019-04-11T23:43:02.044Z,4.58
2019-04-11T23:45:09.887Z,4.76
2019-04-11T23:47:20.130Z,4.91
2019-04-11T23:49:28.279Z,4.88
2019-04-11T23:51:35.962Z,4.85
2019-04-11T23:53:43.733Z,4.84
2019-04-11T23:55:52.411Z,4.78
2019-04-11T23:58:01.696Z,4.81
